KHQM/HQM METAR and TAF weather

Enter ICAO airport designator
Station Type Date Time Source
KHQM METAR 2021/09/16 09:53 UTC NOAA

KHQM 160953Z AUTO 08004KT 10SM CLR 09/07 A3015 RMK AO2 SLP211 T00890067


Station Type Date Time Source
KHQM Decoded METAR 2021/09/16 09:53 UTC NOAA

HOQUIAM BOWERMAN AIRPORT, WA, United States (KHQM) 46-58N 123-56W 7M
Sep 16, 2021 - 05:53 AM EDT / 2021.09.16 0953 UTC
Wind: from the E (080 degrees) at 5 MPH (4 KT):0
Visibility: 10 mile(s):0
Sky conditions: clear
Temperature: 48.0 F (8.9 C)
Dew Point: 44.1 F (6.7 C)
Relative Humidity: 86%
Pressure (altimeter): 30.15 in. Hg (1020 hPa)
ob: KHQM 160953Z AUTO 08004KT 10SM CLR 09/07 A3015 RMK AO2 SLP211 T00890067
cycle: 10

Station Type Date Time Source
KHQM TAF 2021/09/16 06:22 UTC NOAA

TAF KHQM 160520Z 1606/1706 VRB03KT P6SM SKC
FM161100 09005KT 5SM BR SCT002
TEMPO 1612/1615 2SM BR BKN002
FM162000 24010KT P6SM OVC200

Example: see airport list